Exeland, Wisconsin
Current Conditions -  °F | °C
As of 3:55 AM on Saturday 29 Nov 2014 (Local Time) from KRCX Reporting Station
Haze Haze  
Wind Chill: 15°   Ceiling: 400
Heat Index: 23°   Visibility: 2.5mi
Dew Point: 22°   Wind: 7mph
Humidity: 96%   Direction: 130°SE
Pressure: 29.64"   Gusts: NA
Location:  45.67°N, 91.24°W
Report Text: KRCX 290955Z AUTO 13006KT 2 1/2SM BR OVC004 M05/M06 A2964 RMK AO2 T10511056
Loading
Personal Weather Stations






























Interactive Weather Map New forecast layout! Learn more

10-Day Weather Forecast

Advertisements
Track Severe Weather on mobile